メインページ
METAR-TAF:

METAR-TAF

空港 :

桂林, 中華人民共和国

桂林両江国際空港

緯度: 25-20N, 経度: 110-18E, 海抜: 166m

現時点の気象観測

当レポートは56分前の01:00(UTC)に作成
無風
気温 24°C
湿度 100%
気圧 1008 hPa
視程: 3500m
高度600ftの雲はほとんどない
高度2300ftの千切れ雲あり
高度3300ftの曇り
小雨, 靄

METAR: ZGKL 260100Z 00000MPS 3500 -RA BR FEW006 BKN023 OVC033 24/24 Q1008 RERA NOSIG

時間: 09:56 (01:56 UTC)


TAF: 見つかりません

4,000以上の空港の気象観測と天気予報(METAR報とTAF報)

利用可能な観測所は地図上に黄色い丸と赤い丸で示す。

丸の上にカーソルを重ねると観測所名を参照できる。

次にクリックすると気象観測と天気予報を参照できる。

マップの切り替え:黒色「×」印の緑ボタンをクリックして拡大、「-」印の緑ボタンをクリックして縮小、緑色の三角印をクリックして隣りの地図に切り替え


METAR-TAF: